Time;durP1;ratioP1;P1;durP2;ratioP2;P2;SDS_P1;SDS_P2;PMS_P1;PMS_P2;Temp;Humidity;BMP_temperature;BMP_pressure;BME280_temperature;BME280_humidity;BME280_pressure;Samples;Min_cycle;Max_cycle;Signal;HPM_P1;HPM_P2
2022/01/16 00:01:46;;;;;;;;;;;;;;;;;;5065975;28;19935;-81
2022/01/16 00:06:27;;;;;;;;;;;;;;;;;;5063708;28;20758;-81
2022/01/16 00:08:55;;;;;;;;;;;;;;;;;;5066358;28;19928;-81
2022/01/16 00:11:23;;;;;;;;;;;;;;;;;;5063480;28;19924;-81
2022/01/16 00:13:50;;;;;;;;;;;;;;;;;;5068252;28;19978;-81
2022/01/16 00:16:17;;;;;;;;;;;;;;;;;;5070249;28;19924;-81
2022/01/16 00:18:50;;;;;;;;;;;;;;;;;;5064984;28;19981;-81
2022/01/16 00:21:18;;;;;;;;;;;;;;;;;;5067013;28;19999;-81
2022/01/16 00:23:44;;;;;;;;;;;;;;;;;;5062011;28;19980;-81
2022/01/16 00:26:11;;;;;;;;;;;;;;;;;;5051604;28;20011;-81
2022/01/16 00:28:38;;;;;;;;;;;;;;;;;;5064596;28;19931;-81
2022/01/16 00:31:05;;;;;;;;;;;;;;;;;;5067529;28;19935;-81
2022/01/16 00:33:31;;;;;;;;;;;;;;;;;;5066062;28;19920;-81
2022/01/16 00:35:57;;;;;;;;;;;;;;;;;;5086585;28;19978;-81
2022/01/16 00:38:27;;;;;;;;;;;;;;;;;;5067519;28;19928;-79
2022/01/16 00:40:53;;;;;;;;;;;;;;;;;;5070804;28;19928;-81
2022/01/16 00:43:20;;;;;;;;;;;;;;;;;;5079877;28;19924;-81
2022/01/16 00:45:52;;;;;;;;;;;;;;;;;;5086743;27;19930;-81
2022/01/16 00:48:19;;;;;;;;;;;;;;;;;;5088659;28;19924;-81
2022/01/16 00:50:46;;;;;;;;;;;;;;;;;;5064246;28;20271;-81
2022/01/16 00:53:13;;;;;;;;;;;;;;;;;;5088855;28;19924;-81
2022/01/16 00:55:41;;;;;;;;;;;;;;;;;;5047731;28;19927;-81
2022/01/16 00:58:08;;;;;;;;;;;;;;;;;;5065507;28;19932;-81
2022/01/16 01:00:44;;;;;;;;;;;;;;;;;;5076843;28;19969;-81
2022/01/16 01:03:11;;;;;;;;;;;;;;;;;;5087087;28;20430;-80
2022/01/16 01:05:43;;;;;;;;;;;;;;;;;;5068816;28;19926;-80
2022/01/16 01:08:09;;;;;;;;;;;;;;;;;;5052077;28;20385;-81
2022/01/16 01:10:39;;;;;;;;;;;;;;;;;;5084373;28;19924;-81
2022/01/16 01:13:21;;;;;;;;;;;;;;;;;;5089724;28;22897;-81
2022/01/16 01:15:50;;;;;;;;;;;;;;;;;;5087725;28;20006;-81
2022/01/16 01:18:16;;;;;;;;;;;;;;;;;;5070385;28;19924;-81
2022/01/16 01:20:43;;;;;;;;;;;;;;;;;;5066376;28;19955;-81
2022/01/16 01:23:09;;;;;;;;;;;;;;;;;;5065019;28;19920;-80
2022/01/16 01:25:37;;;;;;;;;;;;;;;;;;5063761;28;20421;-81
2022/01/16 01:28:03;;;;;;;;;;;;;;;;;;5087177;28;19934;-81
2022/01/16 01:30:29;;;;;;;;;;;;;;;;;;5081818;28;19924;-81
2022/01/16 01:32:59;;;;;;;;;;;;;;;;;;5091030;28;19934;-80
2022/01/16 01:35:26;;;;;;;;;;;;;;;;;;5087765;28;20066;-80
2022/01/16 01:37:52;;;;;;;;;;;;;;;;;;5091508;28;19924;-80
2022/01/16 01:40:18;;;;;;;;;;;;;;;;;;5091402;28;20390;-80
2022/01/16 01:51:09;;;;;;;;;;;;;;;;;;5072784;28;19924;-80
2022/01/16 01:53:35;;;;;;;;;;;;;;;;;;5062350;28;19930;-80
2022/01/16 01:56:02;;;;;;;;;;;;;;;;;;5054810;28;19967;-80
2022/01/16 01:58:29;;;;;;;;;;;;;;;;;;5065206;28;19932;-81
2022/01/16 02:00:55;;;;;;;;;;;;;;;;;;5066433;28;19935;-80
2022/01/16 02:03:42;;;;;;;;;;;;;;;;;;5055424;28;20412;-80
2022/01/16 02:06:09;;;;;;;;;;;;;;;;;;5052449;28;20023;-81
2022/01/16 02:08:35;;;;;;;;;;;;;;;;;;5049869;28;20007;-80
2022/01/16 02:11:04;;;;;;;;;;;;;;;;;;5049687;28;19967;-80
2022/01/16 02:13:45;;;;;;;;;;;;;;;;;;5064914;28;19932;-80
2022/01/16 02:30:46;;;;;;;;;;;;;;;;;;5068752;28;19920;-80
2022/01/16 02:33:23;;;;;;;;;;;;;;;;;;5003231;28;20372;-80
2022/01/16 02:35:51;;;;;;;;;;;;;;;;;;5006658;28;20466;-80
2022/01/16 02:38:17;;;;;;;;;;;;;;;;;;4987978;28;19961;-80
2022/01/16 02:40:44;;;;;;;;;;;;;;;;;;4986228;28;20427;-80
2022/01/16 02:43:17;;;;;;;;;;;;;;;;;;5017945;28;19933;-80
2022/01/16 02:46:09;;;;;;;;;;;;;;;;;;5046618;28;19931;-80
2022/01/16 02:48:36;;;;;;;;;;;;;;;;;;5021272;28;19921;-81
2022/01/16 02:51:02;;;;;;;;;;;;;;;;;;5011599;28;20063;-81
2022/01/16 02:53:28;;;;;;;;;;;;;;;;;;5002333;28;20061;-81
2022/01/16 02:55:54;;;;;;;;;;;;;;;;;;5041617;28;19936;-80
2022/01/16 02:58:21;;;;;;;;;;;;;;;;;;5027088;28;20396;-80
2022/01/16 03:00:48;;;;;;;;;;;;;;;;;;5043537;28;19951;-81
2022/01/16 03:03:14;;;;;;;;;;;;;;;;;;5037726;28;20304;-81
2022/01/16 03:05:41;;;;;;;;;;;;;;;;;;5065859;28;20052;-81
2022/01/16 03:08:07;;;;;;;;;;;;;;;;;;5071434;28;19925;-80
2022/01/16 03:12:59;;;;;;;;;;;;;;;;;;5069679;28;20313;-80
2022/01/16 03:15:25;;;;;;;;;;;;;;;;;;5066718;28;19928;-80
2022/01/16 03:23:21;;;;;;;;;;;;;;;;;;5065088;28;20364;-80
2022/01/16 03:25:49;;;;;;;;;;;;;;;;;;5063159;28;20015;-80
2022/01/16 03:28:15;;;;;;;;;;;;;;;;;;5067068;28;19924;-80
2022/01/16 03:30:41;;;;;;;;;;;;;;;;;;5062172;28;19928;-80
2022/01/16 03:33:07;;;;;;;;;;;;;;;;;;5066199;28;19935;-80
2022/01/16 03:35:34;;;;;;;;;;;;;;;;;;5061540;28;19928;-80
2022/01/16 03:38:00;;;;;;;;;;;;;;;;;;5070200;28;21683;-80
2022/01/16 03:40:26;;;;;;;;;;;;;;;;;;5066046;28;19921;-80
2022/01/16 03:42:58;;;;;;;;;;;;;;;;;;5071819;28;19981;-80
2022/01/16 03:45:26;;;;;;;;;;;;;;;;;;5042842;28;20496;-81
2022/01/16 03:47:52;;;;;;;;;;;;;;;;;;5045121;28;19950;-81
2022/01/16 03:50:18;;;;;;;;;;;;;;;;;;5051140;28;20358;-81
2022/01/16 03:52:44;;;;;;;;;;;;;;;;;;5028412;28;19928;-81
2022/01/16 03:55:25;;;;;;;;;;;;;;;;;;5065641;28;19934;-81
2022/01/16 03:57:51;;;;;;;;;;;;;;;;;;5049160;28;19924;-81
2022/01/16 04:00:17;;;;;;;;;;;;;;;;;;5035318;28;20473;-81
2022/01/16 04:02:43;;;;;;;;;;;;;;;;;;5066957;28;19935;-81
2022/01/16 04:05:09;;;;;;;;;;;;;;;;;;5051438;28;19921;-81
2022/01/16 04:07:35;;;;;;;;;;;;;;;;;;5066012;28;19931;-81
2022/01/16 04:10:20;;;;;;;;;;;;;;;;;;5025943;28;19936;-81
2022/01/16 04:12:47;;;;;;;;;;;;;;;;;;4970315;28;20316;-81
2022/01/16 04:17:39;;;;;;;;;;;;;;;;;;4952308;28;19930;-81
2022/01/16 04:20:06;;;;;;;;;;;;;;;;;;4953513;28;20021;-81
2022/01/16 04:22:32;;;;;;;;;;;;;;;;;;4945971;28;19953;-81
2022/01/16 04:24:58;;;;;;;;;;;;;;;;;;4952529;28;19972;-81
2022/01/16 04:27:24;;;;;;;;;;;;;;;;;;4928843;28;20020;-81
2022/01/16 04:29:53;;;;;;;;;;;;;;;;;;4965069;28;19921;-81
2022/01/16 04:32:19;;;;;;;;;;;;;;;;;;4949987;28;19918;-80
2022/01/16 04:34:49;;;;;;;;;;;;;;;;;;4967833;28;19925;-81
2022/01/16 04:37:15;;;;;;;;;;;;;;;;;;4950708;28;19918;-81
2022/01/16 04:39:49;;;;;;;;;;;;;;;;;;4952996;28;19933;-80
2022/01/16 04:45:04;;;;;;;;;;;;;;;;;;5048417;28;19932;-81
2022/01/16 04:47:47;;;;;;;;;;;;;;;;;;5020288;28;20052;-81
2022/01/16 04:50:14;;;;;;;;;;;;;;;;;;5011713;28;20032;-81
2022/01/16 04:52:45;;;;;;;;;;;;;;;;;;5003780;28;20002;-81
2022/01/16 04:55:12;;;;;;;;;;;;;;;;;;5007679;28;19962;-81
2022/01/16 04:57:38;;;;;;;;;;;;;;;;;;5004757;28;20027;-81
2022/01/16 05:00:05;;;;;;;;;;;;;;;;;;5025058;28;19925;-81
2022/01/16 05:02:31;;;;;;;;;;;;;;;;;;5017154;28;19929;-81
2022/01/16 05:04:57;;;;;;;;;;;;;;;;;;5008589;28;20018;-81
2022/01/16 05:07:23;;;;;;;;;;;;;;;;;;4991667;28;19929;-81
2022/01/16 05:09:49;;;;;;;;;;;;;;;;;;5009357;28;19924;-81
2022/01/16 05:12:25;;;;;;;;;;;;;;;;;;5009286;28;19947;-81
2022/01/16 05:17:41;;;;;;;;;;;;;;;;;;4990919;28;20083;-81
2022/01/16 05:20:07;;;;;;;;;;;;;;;;;;5044802;28;19936;-81
2022/01/16 05:22:36;;;;;;;;;;;;;;;;;;5043944;28;19921;-81
2022/01/16 05:25:03;;;;;;;;;;;;;;;;;;5049248;28;20727;-81
2022/01/16 05:27:30;;;;;;;;;;;;;;;;;;5063009;28;20694;-81
2022/01/16 05:29:56;;;;;;;;;;;;;;;;;;5069871;28;20639;-81
2022/01/16 05:32:23;;;;;;;;;;;;;;;;;;5047481;28;19935;-81
2022/01/16 05:34:49;;;;;;;;;;;;;;;;;;5033425;28;20567;-81
2022/01/16 05:37:22;;;;;;;;;;;;;;;;;;5040386;28;19947;-80
2022/01/16 05:39:49;;;;;;;;;;;;;;;;;;5051341;28;19939;-81
2022/01/16 05:42:15;;;;;;;;;;;;;;;;;;5053005;28;19920;-81
2022/01/16 05:44:41;;;;;;;;;;;;;;;;;;5060908;28;19928;-81
2022/01/16 05:47:12;;;;;;;;;;;;;;;;;;5049431;28;19969;-81
2022/01/16 05:49:39;;;;;;;;;;;;;;;;;;5060899;28;19924;-81
2022/01/16 05:52:06;;;;;;;;;;;;;;;;;;5067248;28;20501;-81
2022/01/16 05:54:32;;;;;;;;;;;;;;;;;;5064253;28;20371;-81
2022/01/16 05:56:59;;;;;;;;;;;;;;;;;;5069429;28;19926;-80
2022/01/16 05:59:25;;;;;;;;;;;;;;;;;;5060280;28;19924;-80
2022/01/16 06:01:51;;;;;;;;;;;;;;;;;;5059876;28;20283;-80
2022/01/16 06:04:17;;;;;;;;;;;;;;;;;;5053295;28;19924;-81
2022/01/16 06:06:43;;;;;;;;;;;;;;;;;;5051563;28;19924;-81
2022/01/16 06:09:10;;;;;;;;;;;;;;;;;;5069194;28;19963;-81
2022/01/16 06:11:36;;;;;;;;;;;;;;;;;;5066162;28;20001;-81
2022/01/16 06:14:02;;;;;;;;;;;;;;;;;;5074103;28;19973;-81
2022/01/16 06:16:30;;;;;;;;;;;;;;;;;;5069047;28;19916;-81
2022/01/16 06:18:57;;;;;;;;;;;;;;;;;;5073965;28;19924;-81
2022/01/16 06:21:32;;;;;;;;;;;;;;;;;;5068334;28;19981;-80
2022/01/16 06:23:58;;;;;;;;;;;;;;;;;;5071082;28;19920;-80
2022/01/16 06:26:33;;;;;;;;;;;;;;;;;;5068523;28;19939;-81
2022/01/16 06:28:59;;;;;;;;;;;;;;;;;;5068734;28;20003;-81
2022/01/16 06:31:26;;;;;;;;;;;;;;;;;;5064384;28;19928;-81
2022/01/16 06:33:52;;;;;;;;;;;;;;;;;;5071370;28;19929;-80
2022/01/16 06:36:18;;;;;;;;;;;;;;;;;;5057942;28;19928;-80
2022/01/16 06:38:45;;;;;;;;;;;;;;;;;;5065541;28;19935;-81
2022/01/16 06:41:12;;;;;;;;;;;;;;;;;;5057074;28;19932;-81
2022/01/16 06:43:38;;;;;;;;;;;;;;;;;;5053617;28;19928;-81
2022/01/16 06:46:10;;;;;;;;;;;;;;;;;;5075527;28;19931;-81
2022/01/16 06:48:36;;;;;;;;;;;;;;;;;;5056210;28;19927;-81
2022/01/16 06:51:03;;;;;;;;;;;;;;;;;;5074214;28;20005;-81
2022/01/16 06:53:44;;;;;;;;;;;;;;;;;;5033978;28;19924;-81
2022/01/16 06:56:11;;;;;;;;;;;;;;;;;;5037403;28;19932;-81
2022/01/16 06:58:37;;;;;;;;;;;;;;;;;;5049193;28;19924;-81
2022/01/16 07:01:04;;;;;;;;;;;;;;;;;;5050443;28;19979;-81
2022/01/16 07:03:30;;;;;;;;;;;;;;;;;;5046787;28;19928;-81
2022/01/16 07:05:57;;;;;;;;;;;;;;;;;;5051687;28;20342;-81
2022/01/16 07:08:29;;;;;;;;;;;;;;;;;;5014836;28;19959;-81
2022/01/16 07:10:56;;;;;;;;;;;;;;;;;;5019654;28;19920;-81
2022/01/16 07:13:23;;;;;;;;;;;;;;;;;;5030471;28;19928;-81
2022/01/16 07:15:49;;;;;;;;;;;;;;;;;;5053098;28;19981;-80
2022/01/16 07:18:24;;;;;;;;;;;;;;;;;;5047632;28;20359;-81
2022/01/16 07:20:51;;;;;;;;;;;;;;;;;;5022030;28;19933;-81
2022/01/16 07:23:18;;;;;;;;;;;;;;;;;;5028587;28;19977;-81
2022/01/16 07:25:45;;;;;;;;;;;;;;;;;;5067534;28;19920;-82
2022/01/16 07:28:11;;;;;;;;;;;;;;;;;;5056222;28;19920;-81
2022/01/16 07:30:40;;;;;;;;;;;;;;;;;;5073524;28;19934;-81
2022/01/16 07:33:07;;;;;;;;;;;;;;;;;;5091348;28;20011;-81
2022/01/16 07:35:33;;;;;;;;;;;;;;;;;;5071312;28;19927;-82
2022/01/16 07:38:00;;;;;;;;;;;;;;;;;;5090768;28;19932;-81
2022/01/16 07:40:27;;;;;;;;;;;;;;;;;;5068628;28;19950;-81
2022/01/16 07:42:53;;;;;;;;;;;;;;;;;;5092265;27;19924;-81
2022/01/16 07:45:28;;;;;;;;;;;;;;;;;;5087483;28;19970;-82
2022/01/16 07:47:54;;;;;;;;;;;;;;;;;;5072909;28;19955;-82
2022/01/16 07:50:20;;;;;;;;;;;;;;;;;;5090223;27;19931;-82
2022/01/16 07:53:01;;;;;;;;;;;;;;;;;;5093424;28;19946;-82
2022/01/16 07:55:27;;;;;;;;;;;;;;;;;;5053355;28;19964;-82
2022/01/16 07:57:53;;;;;;;;;;;;;;;;;;5090558;28;19927;-82
2022/01/16 08:00:21;;;;;;;;;;;;;;;;;;5074467;28;19924;-82
2022/01/16 08:02:48;;;;;;;;;;;;;;;;;;5088057;28;19924;-81
2022/01/16 08:05:15;;;;;;;;;;;;;;;;;;5067963;28;19923;-81
2022/01/16 08:07:42;;;;;;;;;;;;;;;;;;5089695;27;20062;-81
2022/01/16 08:10:14;;;;;;;;;;;;;;;;;;5070342;28;20104;-81
2022/01/16 08:12:40;;;;;;;;;;;;;;;;;;5085394;28;21971;-81
2022/01/16 08:15:06;;;;;;;;;;;;;;;;;;5087571;28;20389;-81
2022/01/16 08:17:32;;;;;;;;;;;;;;;;;;5088662;27;19928;-81
2022/01/16 08:19:58;;;;;;;;;;;;;;;;;;5056256;28;19974;-81
2022/01/16 08:22:25;;;;;;;;;;;;;;;;;;5071227;28;19942;-81
2022/01/16 08:24:51;;;;;;;;;;;;;;;;;;5074228;28;19916;-81
2022/01/16 08:27:18;;;;;;;;;;;;;;;;;;5058560;28;20374;-81
2022/01/16 08:29:44;;;;;;;;;;;;;;;;;;5067333;28;20319;-81
2022/01/16 08:32:11;;;;;;;;;;;;;;;;;;5088950;27;19927;-81
2022/01/16 08:34:53;;;;;;;;;;;;;;;;;;5049222;28;19921;-81
2022/01/16 08:37:22;;;;;;;;;;;;;;;;;;5029675;28;19939;-81
2022/01/16 08:39:49;;;;;;;;;;;;;;;;;;5027252;28;19924;-81
2022/01/16 08:42:15;;;;;;;;;;;;;;;;;;5050352;28;19946;-81
2022/01/16 08:44:42;;;;;;;;;;;;;;;;;;5010434;28;20620;-81
2022/01/16 08:47:08;;;;;;;;;;;;;;;;;;5031630;28;19925;-81
2022/01/16 08:49:34;;;;;;;;;;;;;;;;;;5043065;28;19932;-81
2022/01/16 08:52:01;;;;;;;;;;;;;;;;;;5030819;28;19928;-82
2022/01/16 08:54:28;;;;;;;;;;;;;;;;;;5039324;28;20110;-81
2022/01/16 08:56:55;;;;;;;;;;;;;;;;;;5049410;28;19971;-81
2022/01/16 08:59:22;;;;;;;;;;;;;;;;;;5030910;28;19928;-81
2022/01/16 09:01:48;;;;;;;;;;;;;;;;;;5032668;28;20027;-81
2022/01/16 09:04:14;;;;;;;;;;;;;;;;;;5048006;28;20406;-81
2022/01/16 09:06:41;;;;;;;;;;;;;;;;;;5054832;28;19929;-81
2022/01/16 09:09:22;;;;;;;;;;;;;;;;;;5039180;28;20751;-81
2022/01/16 09:11:48;;;;;;;;;;;;;;;;;;5033680;28;19925;-81
2022/01/16 09:14:14;;;;;;;;;;;;;;;;;;5013821;28;19925;-81
2022/01/16 09:16:43;;;;;;;;;;;;;;;;;;5045186;28;19924;-81
2022/01/16 09:19:09;;;;;;;;;;;;;;;;;;5032701;28;19924;-81
2022/01/16 09:21:36;;;;;;;;;;;;;;;;;;5027680;28;20479;-81
2022/01/16 09:24:02;;;;;;;;;;;;;;;;;;5030453;28;19947;-81
2022/01/16 09:26:29;;;;;;;;;;;;;;;;;;5028975;28;20008;-81
2022/01/16 09:28:56;;;;;;;;;;;;;;;;;;5036582;28;20492;-81
2022/01/16 09:31:23;;;;;;;;;;;;;;;;;;5026785;28;20183;-81
2022/01/16 09:33:49;;;;;;;;;;;;;;;;;;5027168;28;19944;-81
2022/01/16 09:36:15;;;;;;;;;;;;;;;;;;5031876;28;19947;-81
2022/01/16 09:38:41;;;;;;;;;;;;;;;;;;5025521;28;19928;-81
2022/01/16 09:41:07;;;;;;;;;;;;;;;;;;5059061;28;20013;-81
2022/01/16 09:43:33;;;;;;;;;;;;;;;;;;5065681;28;20060;-81
2022/01/16 09:46:01;;;;;;;;;;;;;;;;;;5056973;28;19965;-81
2022/01/16 09:48:27;;;;;;;;;;;;;;;;;;5063561;28;19981;-81
2022/01/16 09:50:54;;;;;;;;;;;;;;;;;;5076088;28;20278;-81
2022/01/16 09:53:20;;;;;;;;;;;;;;;;;;5069972;28;19924;-81
2022/01/16 09:55:47;;;;;;;;;;;;;;;;;;5073551;28;19925;-81
2022/01/16 09:58:13;;;;;;;;;;;;;;;;;;5051787;28;20413;-81
2022/01/16 10:00:39;;;;;;;;;;;;;;;;;;5064224;28;20458;-81
2022/01/16 10:03:05;;;;;;;;;;;;;;;;;;5053018;28;19920;-81
2022/01/16 10:05:32;;;;;;;;;;;;;;;;;;5063790;28;19935;-81
2022/01/16 10:07:59;;;;;;;;;;;;;;;;;;5053087;28;20285;-81
2022/01/16 10:10:25;;;;;;;;;;;;;;;;;;5065699;28;19974;-81
2022/01/16 10:12:55;;;;;;;;;;;;;;;;;;5071118;28;19920;-81
2022/01/16 10:15:22;;;;;;;;;;;;;;;;;;5070225;28;19920;-81
2022/01/16 10:17:49;;;;;;;;;;;;;;;;;;5053433;28;19928;-81
2022/01/16 10:20:18;;;;;;;;;;;;;;;;;;5072733;28;19932;-81
2022/01/16 10:22:45;;;;;;;;;;;;;;;;;;5071773;28;20456;-81
2022/01/16 10:25:14;;;;;;;;;;;;;;;;;;5075140;28;19962;-81
2022/01/16 10:27:40;;;;;;;;;;;;;;;;;;5066111;28;19961;-81
2022/01/16 10:30:07;;;;;;;;;;;;;;;;;;5073140;28;19965;-81
2022/01/16 10:32:38;;;;;;;;;;;;;;;;;;5067096;28;19924;-81
2022/01/16 10:35:04;;;;;;;;;;;;;;;;;;5059498;28;19916;-81
2022/01/16 10:37:30;;;;;;;;;;;;;;;;;;5065283;28;19924;-81
2022/01/16 10:39:57;;;;;;;;;;;;;;;;;;5058005;28;19951;-81
2022/01/16 10:42:23;;;;;;;;;;;;;;;;;;5066165;28;20013;-81
2022/01/16 10:44:49;;;;;;;;;;;;;;;;;;5056376;28;20378;-81
2022/01/16 10:47:16;;;;;;;;;;;;;;;;;;5073426;28;19948;-81
2022/01/16 10:49:42;;;;;;;;;;;;;;;;;;5066790;28;19928;-81
2022/01/16 10:52:09;;;;;;;;;;;;;;;;;;5068467;28;19963;-81
2022/01/16 10:54:37;;;;;;;;;;;;;;;;;;5065682;28;19924;-81
2022/01/16 10:57:15;;;;;;;;;;;;;;;;;;5065437;28;19920;-81
2022/01/16 10:59:41;;;;;;;;;;;;;;;;;;5069699;28;21309;-81
2022/01/16 11:02:08;;;;;;;;;;;;;;;;;;5072129;28;19967;-81
2022/01/16 11:04:35;;;;;;;;;;;;;;;;;;5067520;28;19924;-81
2022/01/16 11:07:13;;;;;;;;;;;;;;;;;;5055715;28;19927;-81
2022/01/16 11:09:40;;;;;;;;;;;;;;;;;;5070487;28;20438;-81
2022/01/16 11:12:12;;;;;;;;;;;;;;;;;;5055820;28;19935;-81
2022/01/16 11:14:40;;;;;;;;;;;;;;;;;;5064845;28;19928;-82
2022/01/16 11:17:07;;;;;;;;;;;;;;;;;;5073394;28;19924;-80
2022/01/16 11:19:35;;;;;;;;;;;;;;;;;;5065845;28;19927;-80
2022/01/16 11:22:08;;;;;;;;;;;;;;;;;;5069464;28;19932;-81
2022/01/16 11:25:00;;;;;;;;;;;;;;;;;;5066791;28;20362;-81
2022/01/16 11:27:26;;;;;;;;;;;;;;;;;;5051258;28;19965;-80
2022/01/16 11:29:52;;;;;;;;;;;;;;;;;;5069370;28;19916;-80
2022/01/16 11:32:18;;;;;;;;;;;;;;;;;;5066847;28;19920;-81
2022/01/16 11:34:45;;;;;;;;;;;;;;;;;;5050535;28;19928;-81
2022/01/16 11:37:14;;;;;;;;;;;;;;;;;;5067165;28;19932;-81
2022/01/16 11:39:40;;;;;;;;;;;;;;;;;;5062009;28;23326;-81
2022/01/16 11:42:11;;;;;;;;;;;;;;;;;;5070244;28;19946;-81
2022/01/16 11:44:38;;;;;;;;;;;;;;;;;;5064493;28;19970;-80
2022/01/16 11:47:04;;;;;;;;;;;;;;;;;;5068579;28;19932;-78
2022/01/16 11:49:30;;;;;;;;;;;;;;;;;;5061979;28;19939;-80
2022/01/16 11:52:02;;;;;;;;;;;;;;;;;;5064567;28;19936;-81
2022/01/16 11:54:28;;;;;;;;;;;;;;;;;;5045180;28;19935;-80
2022/01/16 11:56:54;;;;;;;;;;;;;;;;;;5069452;28;19928;-80
2022/01/16 11:59:28;;;;;;;;;;;;;;;;;;5067847;28;20392;-81
2022/01/16 12:01:54;;;;;;;;;;;;;;;;;;5068237;28;19925;-79
2022/01/16 12:04:20;;;;;;;;;;;;;;;;;;5069414;28;19927;-81
2022/01/16 12:06:48;;;;;;;;;;;;;;;;;;5068246;28;19927;-82
2022/01/16 12:09:15;;;;;;;;;;;;;;;;;;5066521;28;19935;-82
2022/01/16 12:11:42;;;;;;;;;;;;;;;;;;5067546;28;19986;-82
2022/01/16 12:14:09;;;;;;;;;;;;;;;;;;5066058;28;19924;-80
2022/01/16 12:16:35;;;;;;;;;;;;;;;;;;5061162;28;20014;-81
2022/01/16 12:19:02;;;;;;;;;;;;;;;;;;5074379;28;19920;-81
2022/01/16 12:21:28;;;;;;;;;;;;;;;;;;5051083;28;20061;-80
2022/01/16 12:23:54;;;;;;;;;;;;;;;;;;5053066;28;19920;-81
2022/01/16 12:26:20;;;;;;;;;;;;;;;;;;5063010;28;19928;-79
2022/01/16 12:28:52;;;;;;;;;;;;;;;;;;5064587;28;19973;-79
2022/01/16 12:31:18;;;;;;;;;;;;;;;;;;5051738;28;19920;-79
2022/01/16 12:34:02;;;;;;;;;;;;;;;;;;5025422;28;19929;-79
2022/01/16 12:36:28;;;;;;;;;;;;;;;;;;5004564;28;19982;-79
2022/01/16 12:38:54;;;;;;;;;;;;;;;;;;5010302;28;19928;-80
2022/01/16 12:41:21;;;;;;;;;;;;;;;;;;5021364;28;19952;-79
2022/01/16 12:43:48;;;;;;;;;;;;;;;;;;5008387;28;19924;-80
2022/01/16 12:46:14;;;;;;;;;;;;;;;;;;5010688;28;20367;-81
2022/01/16 12:48:42;;;;;;;;;;;;;;;;;;5028703;28;19932;-80
2022/01/16 12:51:08;;;;;;;;;;;;;;;;;;5026543;28;20324;-80
2022/01/16 12:53:34;;;;;;;;;;;;;;;;;;5007066;28;20288;-78
2022/01/16 12:56:01;;;;;;;;;;;;;;;;;;5011240;28;19925;-79
2022/01/16 12:58:27;;;;;;;;;;;;;;;;;;5005328;28;19986;-80
2022/01/16 13:00:52;;;;;;;;;;;;;;;;;;5012336;28;20364;-80
2022/01/16 13:03:33;;;;;;;;;;;;;;;;;;4983875;28;20296;-79
2022/01/16 13:06:00;;;;;;;;;;;;;;;;;;5008689;28;19925;-80
2022/01/16 13:08:26;;;;;;;;;;;;;;;;;;5007365;28;19996;-79
2022/01/16 13:10:52;;;;;;;;;;;;;;;;;;5011546;28;20248;-80
2022/01/16 13:13:19;;;;;;;;;;;;;;;;;;5011897;28;19931;-80
2022/01/16 13:15:45;;;;;;;;;;;;;;;;;;5022572;28;19925;-80
2022/01/16 13:18:11;;;;;;;;;;;;;;;;;;5026301;28;19925;-80
2022/01/16 13:20:43;;;;;;;;;;;;;;;;;;5006692;28;20126;-79
2022/01/16 13:23:08;;;;;;;;;;;;;;;;;;5034471;28;19936;-80
2022/01/16 13:25:35;;;;;;;;;;;;;;;;;;5029988;28;20332;-79
2022/01/16 13:28:00;;;;;;;;;;;;;;;;;;5018126;28;19924;-80
2022/01/16 13:30:28;;;;;;;;;;;;;;;;;;5029105;28;19936;-80
2022/01/16 13:32:54;;;;;;;;;;;;;;;;;;5020097;28;20011;-81
2022/01/16 13:35:22;;;;;;;;;;;;;;;;;;5059850;28;20007;-81
2022/01/16 13:37:49;;;;;;;;;;;;;;;;;;5075222;28;20042;-79
2022/01/16 13:40:15;;;;;;;;;;;;;;;;;;5072664;28;19977;-79
2022/01/16 13:45:27;;;;;;;;;;;;;;;;;;5070211;28;20297;-80
2022/01/16 13:47:55;;;;;;;;;;;;;;;;;;5074423;28;20399;-80
2022/01/16 13:50:22;;;;;;;;;;;;;;;;;;5071816;28;20010;-80
2022/01/16 13:52:48;;;;;;;;;;;;;;;;;;5070641;28;21470;-79
2022/01/16 13:55:14;;;;;;;;;;;;;;;;;;5071964;28;19928;-79
2022/01/16 13:57:40;;;;;;;;;;;;;;;;;;5064885;28;20055;-80
2022/01/16 14:00:06;;;;;;;;;;;;;;;;;;5068941;28;20500;-80
2022/01/16 14:02:32;;;;;;;;;;;;;;;;;;5068633;28;19928;-80
2022/01/16 14:05:00;;;;;;;;;;;;;;;;;;5070995;28;19923;-80
2022/01/16 14:07:26;;;;;;;;;;;;;;;;;;5072265;28;19928;-80
2022/01/16 14:09:55;;;;;;;;;;;;;;;;;;5072209;28;19920;-80
2022/01/16 14:12:22;;;;;;;;;;;;;;;;;;5071456;28;19967;-80
2022/01/16 14:14:49;;;;;;;;;;;;;;;;;;5072927;28;19920;-80
2022/01/16 14:20:22;;;;;;;;;;;;;;;;;;5071524;28;19960;-79
2022/01/16 14:23:02;;;;;;;;;;;;;;;;;;5058037;28;19920;-80
2022/01/16 14:25:28;;;;;;;;;;;;;;;;;;5055216;28;19944;-80
2022/01/16 14:27:54;;;;;;;;;;;;;;;;;;5035171;28;20358;-80
2022/01/16 14:30:23;;;;;;;;;;;;;;;;;;5054150;28;19921;-79
2022/01/16 14:32:52;;;;;;;;;;;;;;;;;;5047968;28;19964;-80
2022/01/16 14:35:19;;;;;;;;;;;;;;;;;;5039283;28;20047;-78
2022/01/16 14:37:45;;;;;;;;;;;;;;;;;;5032668;28;19985;-79
2022/01/16 14:40:11;;;;;;;;;;;;;;;;;;5019701;28;20493;-79
2022/01/16 14:42:41;;;;;;;;;;;;;;;;;;5019290;28;19950;-79
2022/01/16 14:45:07;;;;;;;;;;;;;;;;;;5053038;28;19928;-79
2022/01/16 14:47:43;;;;;;;;;;;;;;;;;;5049348;28;20398;-80
2022/01/16 14:50:24;;;;;;;;;;;;;;;;;;5023861;28;19925;-80
2022/01/16 14:52:50;;;;;;;;;;;;;;;;;;5013036;28;19929;-80
2022/01/16 14:55:17;;;;;;;;;;;;;;;;;;5036436;28;20391;-80
2022/01/16 14:57:44;;;;;;;;;;;;;;;;;;5034067;28;19935;-80
2022/01/16 15:00:10;;;;;;;;;;;;;;;;;;5017638;28;19935;-80
2022/01/16 15:02:37;;;;;;;;;;;;;;;;;;5028442;28;22850;-79
2022/01/16 15:05:04;;;;;;;;;;;;;;;;;;5053402;28;19925;-79
2022/01/16 15:07:35;;;;;;;;;;;;;;;;;;5048953;28;19920;-79
2022/01/16 15:10:01;;;;;;;;;;;;;;;;;;5037981;28;20405;-79
2022/01/16 15:12:27;;;;;;;;;;;;;;;;;;5032368;28;20386;-79
2022/01/16 15:14:53;;;;;;;;;;;;;;;;;;5034503;28;19929;-79
2022/01/16 15:17:22;;;;;;;;;;;;;;;;;;5021179;28;19920;-79
2022/01/16 15:19:51;;;;;;;;;;;;;;;;;;5036055;28;19928;-79
2022/01/16 15:22:25;;;;;;;;;;;;;;;;;;5065601;28;19977;-79
2022/01/16 15:24:51;;;;;;;;;;;;;;;;;;5070815;28;19920;-79
2022/01/16 15:27:17;;;;;;;;;;;;;;;;;;5052636;28;19935;-79
2022/01/16 15:29:44;;;;;;;;;;;;;;;;;;5068486;28;20271;-79
2022/01/16 15:32:19;;;;;;;;;;;;;;;;;;5071582;28;19923;-79
2022/01/16 15:34:45;;;;;;;;;;;;;;;;;;5067350;28;19920;-79
2022/01/16 15:37:16;;;;;;;;;;;;;;;;;;5069171;28;20066;-79
2022/01/16 15:39:43;;;;;;;;;;;;;;;;;;5066385;28;20479;-79
2022/01/16 15:42:08;;;;;;;;;;;;;;;;;;5067517;28;20657;-80
2022/01/16 15:44:35;;;;;;;;;;;;;;;;;;5068848;28;19928;-80
2022/01/16 15:47:01;;;;;;;;;;;;;;;;;;5041295;28;19931;-80
2022/01/16 15:49:28;;;;;;;;;;;;;;;;;;5050297;28;19928;-81
2022/01/16 15:51:54;;;;;;;;;;;;;;;;;;5051659;28;19925;-82
2022/01/16 15:54:21;;;;;;;;;;;;;;;;;;5045461;28;19924;-81
2022/01/16 15:56:47;;;;;;;;;;;;;;;;;;5063954;28;19939;-81
2022/01/16 15:59:13;;;;;;;;;;;;;;;;;;5048578;28;20454;-80
2022/01/16 16:01:39;;;;;;;;;;;;;;;;;;5045254;28;20066;-81
2022/01/16 16:04:06;;;;;;;;;;;;;;;;;;5067800;28;19966;-80
2022/01/16 16:06:34;;;;;;;;;;;;;;;;;;5061292;28;20256;-80
2022/01/16 16:09:02;;;;;;;;;;;;;;;;;;5067206;28;19920;-80
2022/01/16 16:11:28;;;;;;;;;;;;;;;;;;5065029;28;20428;-80
2022/01/16 16:13:54;;;;;;;;;;;;;;;;;;5056854;28;20393;-80
2022/01/16 16:16:22;;;;;;;;;;;;;;;;;;5065499;28;19924;-79
2022/01/16 16:18:48;;;;;;;;;;;;;;;;;;5054402;28;20002;-80
2022/01/16 16:21:14;;;;;;;;;;;;;;;;;;5034484;28;19982;-79
2022/01/16 16:23:40;;;;;;;;;;;;;;;;;;5048748;28;22241;-79
2022/01/16 16:26:06;;;;;;;;;;;;;;;;;;5036806;28;19926;-79
2022/01/16 16:28:32;;;;;;;;;;;;;;;;;;5032569;28;19924;-80
2022/01/16 16:30:58;;;;;;;;;;;;;;;;;;5044658;28;19921;-79
2022/01/16 16:33:27;;;;;;;;;;;;;;;;;;5044090;28;19928;-80
2022/01/16 16:35:56;;;;;;;;;;;;;;;;;;5032528;28;19928;-78
2022/01/16 16:38:43;;;;;;;;;;;;;;;;;;5063115;28;19935;-79
2022/01/16 16:41:10;;;;;;;;;;;;;;;;;;5050412;28;19924;-79
2022/01/16 16:43:36;;;;;;;;;;;;;;;;;;5041394;28;19993;-80
2022/01/16 16:46:05;;;;;;;;;;;;;;;;;;5081555;28;19962;-79
2022/01/16 16:48:31;;;;;;;;;;;;;;;;;;5060311;28;19936;-80
2022/01/16 16:51:00;;;;;;;;;;;;;;;;;;5068856;28;19928;-79
2022/01/16 16:53:29;;;;;;;;;;;;;;;;;;5063718;28;20011;-79
2022/01/16 16:55:56;;;;;;;;;;;;;;;;;;5064171;28;19928;-79
2022/01/16 16:58:23;;;;;;;;;;;;;;;;;;5056751;28;19958;-79
2022/01/16 17:00:58;;;;;;;;;;;;;;;;;;5071228;28;19939;-79
2022/01/16 17:03:25;;;;;;;;;;;;;;;;;;5060862;28;19974;-79
2022/01/16 17:05:52;;;;;;;;;;;;;;;;;;5066020;28;19996;-79
2022/01/16 17:08:18;;;;;;;;;;;;;;;;;;5066121;28;19924;-80
2022/01/16 17:10:44;;;;;;;;;;;;;;;;;;5043069;28;19972;-80
2022/01/16 17:13:12;;;;;;;;;;;;;;;;;;5062233;28;19928;-80
2022/01/16 17:15:39;;;;;;;;;;;;;;;;;;5056961;28;19928;-80
2022/01/16 17:18:10;;;;;;;;;;;;;;;;;;5063596;28;19931;-80
2022/01/16 17:20:37;;;;;;;;;;;;;;;;;;5062628;28;20359;-80
2022/01/16 17:23:04;;;;;;;;;;;;;;;;;;5066292;28;20019;-80
2022/01/16 17:25:33;;;;;;;;;;;;;;;;;;5064086;28;20001;-80
2022/01/16 17:28:03;;;;;;;;;;;;;;;;;;5068108;28;19942;-79
2022/01/16 17:30:29;;;;;;;;;;;;;;;;;;5060739;28;20293;-80
2022/01/16 17:32:55;;;;;;;;;;;;;;;;;;5066032;28;19924;-79
2022/01/16 17:35:30;;;;;;;;;;;;;;;;;;5060814;28;19970;-79
2022/01/16 17:37:58;;;;;;;;;;;;;;;;;;5061909;28;20693;-79